Laurel, Montana
Current Conditions -  °F | °C
As of 2:53 AM on Monday 20 Oct 2014 (Local Time) from KBIL Reporting Station
Clear Clear  
Wind Chill: 44°   Ceiling: Unl
Heat Index: 49°   Visibility: 10mi
Dew Point: 32°   Wind: 14mph
Humidity: 52%   Direction: 240°WSW
Pressure: 29.95"   Gusts: NA
Location:  45.67°N, 108.77°W
Report Text: KBIL 200853Z 24012KT 10SM CLR 09/00 A2995 RMK AO2 SLP127 T00940000 56005
Loading
Personal Weather Stations






























Interactive Weather Map
Tropical Storm Tracking
New forecast layout! Learn more

10-Day Weather Forecast

Advertisements
Track Severe Weather on mobile